Tropical Cyclones
[Index]
Main Index Home Page Stock Weather Photos Extreme Storms Discussion Storm News and Storm Chasing Reports Tropical Cyclones / Hurricanes / Typhoons Weather Data and Links Wild Fires / Bushfires Weather Observation Techniques Weather Picture Catalogue Tornado Pictures and Reports Stock Video Footage and DVDs for sale
Season 1999-2000 Tropical Cyclone FELICIA Track Map
Season 1999-2000 Summaries (Operational Data): [AU] [SIO] [SPAC] [SH]
<<- Previous TC | 1999-2000 Season | Next TC ->>

click for intensity scale information  Lat/long Grid: Show Hide

 Date Labels: Show Hide

Operational Tropical Cyclone Data : JTWC Advisories

Name: FELICIA
Number: 0012

19 Feb 2000 06:00 UTC to 24 Feb 2000 06:00 UTC

    date/time    lat    long     hPa   cat  kts
2000-02-19 06   14.1    77.4    1002         30          
2000-02-19 12   14.4    78.1    1002         30          
2000-02-19 18   14.5    77.5     999         30          
2000-02-20 00   15.0    76.3     993    1    40          
2000-02-20 06   15.2    75.5     993    1    40          
2000-02-20 12   16.3    76.3     993    1    40          
2000-02-20 18   16.4    74.6     997         30          
2000-02-21 00   16.5    74.4     997         30          
2000-02-21 06   17.0    73.3     992    1    40          
2000-02-21 12   17.6    71.7     992    1    40          
2000-02-21 18   18.6    70.9     992    1    40          
2000-02-22 00   19.3    69.8     992    1    40          
2000-02-22 06   20.8    68.4     980    2    55          
2000-02-22 12   22.1    67.7     980    2    55          
2000-02-22 18   23.1    67.3     974    2    60          
2000-02-23 00   24.5    66.6     974    2    60          
2000-02-23 06   25.9    66.5     974    2    60          
2000-02-23 12   27.0    65.9     976    2    60          
2000-02-23 18   28.1    68.3     985    2    50          
2000-02-24 00   29.8    64.2     994    1    40          
2000-02-24 06   30.5    63.8     997         30          
Winds are 10-min average.

Tropical cyclone tracks developed by Michael Bath using operational warnings and advisories and Google Maps.


[Australian Severe Weather index] [Copyright Notice] [Email Contacts] [Search This Site] [Privacy Policy]
Document: tropical_cyclone_felicia.htm Updated: 28 May 2013